sensor_id;sensor_type;location;lat;lon;timestamp;P1;durP1;ratioP1;P2;durP2;ratioP2
58306;SDS011;44116;50.884;4.768;2023-06-04T00:02:00;3.9;;;1.4;;
58306;SDS011;44116;50.884;4.768;2023-06-04T00:03:59;5.8;;;1.6;;
58306;SDS011;44116;50.884;4.768;2023-06-04T00:05:59;5.9;;;1.5;;
58306;SDS011;44116;50.884;4.768;2023-06-04T00:07:59;4.0;;;1.3;;
58306;SDS011;44116;50.884;4.768;2023-06-04T00:09:59;3.3;;;1.5;;
58306;SDS011;44116;50.884;4.768;2023-06-04T00:13:58;2.0;;;1.3;;
58306;SDS011;44116;50.884;4.768;2023-06-04T00:15:58;5.3;;;1.4;;
58306;SDS011;44116;50.884;4.768;2023-06-04T00:25:57;4.2;;;1.6;;
58306;SDS011;44116;50.884;4.768;2023-06-04T00:27:57;2.3;;;1.2;;
58306;SDS011;44116;50.884;4.768;2023-06-04T00:29:57;2.6;;;1.3;;
58306;SDS011;44116;50.884;4.768;2023-06-04T00:31:57;3.5;;;1.5;;
58306;SDS011;44116;50.884;4.768;2023-06-04T00:33:56;3.7;;;1.3;;
58306;SDS011;44116;50.884;4.768;2023-06-04T00:37:56;4.0;;;1.5;;
58306;SDS011;44116;50.884;4.768;2023-06-04T00:39:56;3.4;;;1.4;;
58306;SDS011;44116;50.884;4.768;2023-06-04T00:41:56;5.4;;;1.3;;
58306;SDS011;44116;50.884;4.768;2023-06-04T00:43:55;2.9;;;1.2;;
58306;SDS011;44116;50.884;4.768;2023-06-04T00:45:55;2.1;;;1.3;;
58306;SDS011;44116;50.884;4.768;2023-06-04T00:49:56;3.3;;;1.5;;
58306;SDS011;44116;50.884;4.768;2023-06-04T00:51:55;2.6;;;1.3;;
58306;SDS011;44116;50.884;4.768;2023-06-04T00:53:54;3.9;;;1.4;;
58306;SDS011;44116;50.884;4.768;2023-06-04T00:57:54;2.2;;;1.3;;
58306;SDS011;44116;50.884;4.768;2023-06-04T00:59:54;4.0;;;1.4;;
58306;SDS011;44116;50.884;4.768;2023-06-04T01:01:57;3.9;;;1.3;;
58306;SDS011;44116;50.884;4.768;2023-06-04T01:03:55;3.4;;;1.6;;
58306;SDS011;44116;50.884;4.768;2023-06-04T01:06:00;3.8;;;1.5;;
58306;SDS011;44116;50.884;4.768;2023-06-04T01:07:53;3.2;;;1.4;;
58306;SDS011;44116;50.884;4.768;2023-06-04T01:11:52;4.5;;;1.5;;
58306;SDS011;44116;50.884;4.768;2023-06-04T01:13:52;3.8;;;1.4;;
58306;SDS011;44116;50.884;4.768;2023-06-04T01:17:54;2.9;;;1.6;;
58306;SDS011;44116;50.884;4.768;2023-06-04T01:21:52;3.3;;;1.7;;
58306;SDS011;44116;50.884;4.768;2023-06-04T01:25:51;3.9;;;1.6;;
58306;SDS011;44116;50.884;4.768;2023-06-04T01:27:52;2.6;;;1.7;;
58306;SDS011;44116;50.884;4.768;2023-06-04T01:29:50;4.6;;;1.9;;
58306;SDS011;44116;50.884;4.768;2023-06-04T01:31:52;4.8;;;1.6;;
58306;SDS011;44116;50.884;4.768;2023-06-04T01:33:50;4.3;;;1.5;;
58306;SDS011;44116;50.884;4.768;2023-06-04T01:37:49;4.4;;;1.4;;
58306;SDS011;44116;50.884;4.768;2023-06-04T01:39:49;2.6;;;1.6;;
58306;SDS011;44116;50.884;4.768;2023-06-04T01:41:49;3.4;;;1.5;;
58306;SDS011;44116;50.884;4.768;2023-06-04T01:43:48;4.0;;;1.6;;
58306;SDS011;44116;50.884;4.768;2023-06-04T01:45:48;4.5;;;1.7;;
58306;SDS011;44116;50.884;4.768;2023-06-04T01:47:48;3.9;;;1.6;;
58306;SDS011;44116;50.884;4.768;2023-06-04T01:49:48;3.1;;;1.8;;
58306;SDS011;44116;50.884;4.768;2023-06-04T01:53:47;2.9;;;1.5;;
58306;SDS011;44116;50.884;4.768;2023-06-04T01:55:47;4.7;;;1.7;;
58306;SDS011;44116;50.884;4.768;2023-06-04T01:59:47;5.3;;;1.8;;
58306;SDS011;44116;50.884;4.768;2023-06-04T02:01:46;3.8;;;1.9;;
58306;SDS011;44116;50.884;4.768;2023-06-04T02:05:46;4.8;;;2.1;;
58306;SDS011;44116;50.884;4.768;2023-06-04T02:07:46;3.2;;;1.9;;
58306;SDS011;44116;50.884;4.768;2023-06-04T02:09:45;4.7;;;2.0;;
58306;SDS011;44116;50.884;4.768;2023-06-04T02:11:45;4.1;;;1.8;;
58306;SDS011;44116;50.884;4.768;2023-06-04T02:13:45;3.8;;;2.2;;
58306;SDS011;44116;50.884;4.768;2023-06-04T02:15:45;3.6;;;1.9;;
58306;SDS011;44116;50.884;4.768;2023-06-04T02:17:44;4.0;;;1.8;;
58306;SDS011;44116;50.884;4.768;2023-06-04T02:19:44;4.4;;;2.0;;
58306;SDS011;44116;50.884;4.768;2023-06-04T02:21:44;7.7;;;2.3;;
58306;SDS011;44116;50.884;4.768;2023-06-04T02:23:44;3.9;;;2.1;;
58306;SDS011;44116;50.884;4.768;2023-06-04T02:25:44;6.2;;;2.2;;
58306;SDS011;44116;50.884;4.768;2023-06-04T02:27:43;4.9;;;2.1;;
58306;SDS011;44116;50.884;4.768;2023-06-04T02:29:43;4.6;;;2.3;;
58306;SDS011;44116;50.884;4.768;2023-06-04T02:33:42;6.2;;;2.4;;
58306;SDS011;44116;50.884;4.768;2023-06-04T02:35:43;5.2;;;2.3;;
58306;SDS011;44116;50.884;4.768;2023-06-04T02:37:42;5.5;;;2.5;;
58306;SDS011;44116;50.884;4.768;2023-06-04T02:39:42;7.1;;;2.4;;
58306;SDS011;44116;50.884;4.768;2023-06-04T02:43:41;5.0;;;2.5;;
58306;SDS011;44116;50.884;4.768;2023-06-04T02:45:41;4.6;;;2.4;;
58306;SDS011;44116;50.884;4.768;2023-06-04T02:49:40;5.9;;;2.3;;
58306;SDS011;44116;50.884;4.768;2023-06-04T02:51:40;4.7;;;2.6;;
58306;SDS011;44116;50.884;4.768;2023-06-04T02:53:40;5.5;;;2.3;;
58306;SDS011;44116;50.884;4.768;2023-06-04T02:55:40;7.3;;;2.7;;
58306;SDS011;44116;50.884;4.768;2023-06-04T02:57:41;6.7;;;2.5;;
58306;SDS011;44116;50.884;4.768;2023-06-04T02:59:39;3.7;;;2.4;;
58306;SDS011;44116;50.884;4.768;2023-06-04T03:01:39;6.2;;;2.3;;
58306;SDS011;44116;50.884;4.768;2023-06-04T03:03:39;5.4;;;2.5;;
58306;SDS011;44116;50.884;4.768;2023-06-04T03:05:38;4.5;;;2.4;;
58306;SDS011;44116;50.884;4.768;2023-06-04T03:07:39;6.5;;;2.9;;
58306;SDS011;44116;50.884;4.768;2023-06-04T03:09:38;3.8;;;2.3;;
58306;SDS011;44116;50.884;4.768;2023-06-04T03:11:38;6.6;;;2.9;;
58306;SDS011;44116;50.884;4.768;2023-06-04T03:13:38;6.6;;;2.7;;
58306;SDS011;44116;50.884;4.768;2023-06-04T03:15:37;4.3;;;2.4;;
58306;SDS011;44116;50.884;4.768;2023-06-04T03:19:37;5.4;;;2.5;;
58306;SDS011;44116;50.884;4.768;2023-06-04T03:21:37;5.9;;;2.4;;
58306;SDS011;44116;50.884;4.768;2023-06-04T03:23:36;5.7;;;2.6;;
58306;SDS011;44116;50.884;4.768;2023-06-04T03:25:36;4.1;;;2.4;;
58306;SDS011;44116;50.884;4.768;2023-06-04T03:27:36;6.7;;;2.5;;
58306;SDS011;44116;50.884;4.768;2023-06-04T03:29:36;5.0;;;2.2;;
58306;SDS011;44116;50.884;4.768;2023-06-04T03:31:35;5.7;;;2.5;;
58306;SDS011;44116;50.884;4.768;2023-06-04T03:33:35;6.8;;;2.7;;
58306;SDS011;44116;50.884;4.768;2023-06-04T03:35:35;6.3;;;2.2;;
58306;SDS011;44116;50.884;4.768;2023-06-04T03:37:34;4.5;;;2.5;;
58306;SDS011;44116;50.884;4.768;2023-06-04T03:39:34;4.8;;;2.8;;
58306;SDS011;44116;50.884;4.768;2023-06-04T03:41:34;7.0;;;2.6;;
58306;SDS011;44116;50.884;4.768;2023-06-04T03:43:34;5.8;;;2.4;;
58306;SDS011;44116;50.884;4.768;2023-06-04T03:45:33;4.0;;;2.5;;
58306;SDS011;44116;50.884;4.768;2023-06-04T03:47:33;6.1;;;2.6;;
58306;SDS011;44116;50.884;4.768;2023-06-04T03:49:33;7.2;;;2.7;;
58306;SDS011;44116;50.884;4.768;2023-06-04T03:53:32;5.4;;;2.4;;
58306;SDS011;44116;50.884;4.768;2023-06-04T03:59:32;6.4;;;2.2;;
58306;SDS011;44116;50.884;4.768;2023-06-04T04:01:32;4.8;;;2.6;;
58306;SDS011;44116;50.884;4.768;2023-06-04T04:03:31;5.1;;;2.5;;
58306;SDS011;44116;50.884;4.768;2023-06-04T04:05:31;5.7;;;2.4;;
58306;SDS011;44116;50.884;4.768;2023-06-04T04:09:30;4.8;;;2.6;;
58306;SDS011;44116;50.884;4.768;2023-06-04T04:15:30;6.3;;;2.7;;
58306;SDS011;44116;50.884;4.768;2023-06-04T04:19:29;6.1;;;2.5;;
58306;SDS011;44116;50.884;4.768;2023-06-04T04:23:29;4.8;;;2.3;;
58306;SDS011;44116;50.884;4.768;2023-06-04T04:27:28;6.2;;;2.6;;
58306;SDS011;44116;50.884;4.768;2023-06-04T04:29:28;5.4;;;2.5;;
58306;SDS011;44116;50.884;4.768;2023-06-04T04:31:28;5.2;;;2.7;;
58306;SDS011;44116;50.884;4.768;2023-06-04T04:33:28;5.4;;;2.3;;
58306;SDS011;44116;50.884;4.768;2023-06-04T04:35:27;8.3;;;3.0;;
58306;SDS011;44116;50.884;4.768;2023-06-04T04:37:27;6.9;;;2.6;;
58306;SDS011;44116;50.884;4.768;2023-06-04T04:39:27;6.5;;;2.8;;
58306;SDS011;44116;50.884;4.768;2023-06-04T04:41:27;6.2;;;2.7;;
58306;SDS011;44116;50.884;4.768;2023-06-04T04:43:31;7.0;;;2.6;;
58306;SDS011;44116;50.884;4.768;2023-06-04T04:45:26;4.2;;;2.4;;
58306;SDS011;44116;50.884;4.768;2023-06-04T04:47:26;6.4;;;2.7;;
58306;SDS011;44116;50.884;4.768;2023-06-04T04:49:26;3.6;;;2.4;;
58306;SDS011;44116;50.884;4.768;2023-06-04T04:51:25;5.3;;;2.6;;
58306;SDS011;44116;50.884;4.768;2023-06-04T04:53:26;5.2;;;2.5;;
58306;SDS011;44116;50.884;4.768;2023-06-04T04:55:25;6.8;;;2.6;;
58306;SDS011;44116;50.884;4.768;2023-06-04T04:57:25;5.2;;;2.3;;
58306;SDS011;44116;50.884;4.768;2023-06-04T04:59:25;6.1;;;2.6;;
58306;SDS011;44116;50.884;4.768;2023-06-04T05:01:24;4.7;;;2.3;;
58306;SDS011;44116;50.884;4.768;2023-06-04T05:03:24;5.6;;;2.7;;
58306;SDS011;44116;50.884;4.768;2023-06-04T05:05:24;5.3;;;2.6;;
58306;SDS011;44116;50.884;4.768;2023-06-04T05:07:24;6.1;;;2.4;;
58306;SDS011;44116;50.884;4.768;2023-06-04T05:09:24;9.0;;;2.5;;
58306;SDS011;44116;50.884;4.768;2023-06-04T05:11:23;4.6;;;2.3;;
58306;SDS011;44116;50.884;4.768;2023-06-04T05:13:23;5.0;;;2.4;;
58306;SDS011;44116;50.884;4.768;2023-06-04T05:15:23;4.7;;;2.7;;
58306;SDS011;44116;50.884;4.768;2023-06-04T05:17:23;6.0;;;2.8;;
58306;SDS011;44116;50.884;4.768;2023-06-04T05:19:22;5.4;;;2.5;;
58306;SDS011;44116;50.884;4.768;2023-06-04T05:21:22;5.6;;;2.6;;
58306;SDS011;44116;50.884;4.768;2023-06-04T05:23:22;8.1;;;2.7;;
58306;SDS011;44116;50.884;4.768;2023-06-04T05:25:22;5.1;;;2.5;;
58306;SDS011;44116;50.884;4.768;2023-06-04T05:27:22;6.9;;;3.4;;
58306;SDS011;44116;50.884;4.768;2023-06-04T05:29:22;6.0;;;2.7;;
58306;SDS011;44116;50.884;4.768;2023-06-04T05:31:21;7.5;;;2.6;;
58306;SDS011;44116;50.884;4.768;2023-06-04T05:33:21;6.7;;;2.4;;
58306;SDS011;44116;50.884;4.768;2023-06-04T05:35:21;7.3;;;2.8;;
58306;SDS011;44116;50.884;4.768;2023-06-04T05:39:20;5.7;;;2.9;;
58306;SDS011;44116;50.884;4.768;2023-06-04T05:41:20;5.2;;;2.6;;
58306;SDS011;44116;50.884;4.768;2023-06-04T05:43:20;6.5;;;2.9;;
58306;SDS011;44116;50.884;4.768;2023-06-04T05:45:20;6.5;;;3.2;;
58306;SDS011;44116;50.884;4.768;2023-06-04T05:47:20;5.4;;;2.6;;
58306;SDS011;44116;50.884;4.768;2023-06-04T05:51:19;7.8;;;2.7;;
58306;SDS011;44116;50.884;4.768;2023-06-04T05:53:19;5.1;;;2.9;;
58306;SDS011;44116;50.884;4.768;2023-06-04T05:57:19;5.2;;;2.7;;
58306;SDS011;44116;50.884;4.768;2023-06-04T06:01:18;8.3;;;3.1;;
58306;SDS011;44116;50.884;4.768;2023-06-04T06:03:18;8.3;;;2.9;;
58306;SDS011;44116;50.884;4.768;2023-06-04T06:05:18;4.6;;;2.6;;
58306;SDS011;44116;50.884;4.768;2023-06-04T06:09:19;8.9;;;3.1;;
58306;SDS011;44116;50.884;4.768;2023-06-04T06:11:17;6.2;;;2.8;;
58306;SDS011;44116;50.884;4.768;2023-06-04T06:13:17;5.2;;;2.5;;
58306;SDS011;44116;50.884;4.768;2023-06-04T06:15:17;7.2;;;2.7;;
58306;SDS011;44116;50.884;4.768;2023-06-04T06:17:17;8.0;;;2.9;;
58306;SDS011;44116;50.884;4.768;2023-06-04T06:19:16;6.4;;;3.2;;
58306;SDS011;44116;50.884;4.768;2023-06-04T06:23:16;4.5;;;2.6;;
58306;SDS011;44116;50.884;4.768;2023-06-04T06:25:16;4.3;;;2.7;;
58306;SDS011;44116;50.884;4.768;2023-06-04T06:27:16;5.6;;;3.0;;
58306;SDS011;44116;50.884;4.768;2023-06-04T06:29:15;6.5;;;2.7;;
58306;SDS011;44116;50.884;4.768;2023-06-04T06:35:15;7.5;;;2.8;;
58306;SDS011;44116;50.884;4.768;2023-06-04T06:37:15;6.5;;;3.0;;
58306;SDS011;44116;50.884;4.768;2023-06-04T06:39:15;5.2;;;2.7;;
58306;SDS011;44116;50.884;4.768;2023-06-04T06:43:14;5.9;;;2.9;;
58306;SDS011;44116;50.884;4.768;2023-06-04T06:45:14;4.0;;;2.7;;
58306;SDS011;44116;50.884;4.768;2023-06-04T06:47:14;5.3;;;3.0;;
58306;SDS011;44116;50.884;4.768;2023-06-04T06:49:14;4.9;;;2.6;;
58306;SDS011;44116;50.884;4.768;2023-06-04T06:51:13;4.7;;;2.4;;
58306;SDS011;44116;50.884;4.768;2023-06-04T06:53:13;8.3;;;2.7;;
58306;SDS011;44116;50.884;4.768;2023-06-04T06:55:13;8.1;;;3.1;;
58306;SDS011;44116;50.884;4.768;2023-06-04T06:57:13;5.7;;;2.5;;
58306;SDS011;44116;50.884;4.768;2023-06-04T06:59:13;5.9;;;2.8;;
58306;SDS011;44116;50.884;4.768;2023-06-04T07:01:13;5.2;;;2.4;;
58306;SDS011;44116;50.884;4.768;2023-06-04T07:03:12;5.5;;;2.6;;
58306;SDS011;44116;50.884;4.768;2023-06-04T07:05:14;5.2;;;2.5;;
58306;SDS011;44116;50.884;4.768;2023-06-04T07:07:12;5.5;;;2.2;;
58306;SDS011;44116;50.884;4.768;2023-06-04T07:09:12;5.2;;;2.5;;
58306;SDS011;44116;50.884;4.768;2023-06-04T07:11:12;4.5;;;2.4;;
58306;SDS011;44116;50.884;4.768;2023-06-04T07:15:11;4.4;;;2.3;;
58306;SDS011;44116;50.884;4.768;2023-06-04T07:19:11;4.9;;;2.2;;
58306;SDS011;44116;50.884;4.768;2023-06-04T07:21:11;4.3;;;2.3;;
58306;SDS011;44116;50.884;4.768;2023-06-04T07:23:11;3.6;;;2.0;;
58306;SDS011;44116;50.884;4.768;2023-06-04T07:25:11;4.6;;;2.3;;
58306;SDS011;44116;50.884;4.768;2023-06-04T07:29:10;5.5;;;2.2;;
58306;SDS011;44116;50.884;4.768;2023-06-04T07:31:10;5.8;;;2.1;;
58306;SDS011;44116;50.884;4.768;2023-06-04T07:33:10;5.5;;;2.2;;
58306;SDS011;44116;50.884;4.768;2023-06-04T07:35:13;5.7;;;2.1;;
58306;SDS011;44116;50.884;4.768;2023-06-04T07:37:10;4.3;;;1.9;;
58306;SDS011;44116;50.884;4.768;2023-06-04T07:41:10;4.9;;;2.2;;
58306;SDS011;44116;50.884;4.768;2023-06-04T07:43:09;6.1;;;2.3;;
58306;SDS011;44116;50.884;4.768;2023-06-04T07:45:09;5.1;;;2.0;;
58306;SDS011;44116;50.884;4.768;2023-06-04T07:47:09;6.5;;;2.4;;
58306;SDS011;44116;50.884;4.768;2023-06-04T07:49:09;3.9;;;2.0;;
58306;SDS011;44116;50.884;4.768;2023-06-04T07:51:09;4.0;;;2.1;;
58306;SDS011;44116;50.884;4.768;2023-06-04T07:55:08;5.6;;;1.9;;
58306;SDS011;44116;50.884;4.768;2023-06-04T07:57:08;5.0;;;2.0;;
58306;SDS011;44116;50.884;4.768;2023-06-04T07:59:09;7.1;;;2.2;;
58306;SDS011;44116;50.884;4.768;2023-06-04T08:01:09;5.9;;;1.8;;
58306;SDS011;44116;50.884;4.768;2023-06-04T08:03:08;5.3;;;2.0;;
58306;SDS011;44116;50.884;4.768;2023-06-04T08:07:08;4.0;;;1.8;;
58306;SDS011;44116;50.884;4.768;2023-06-04T08:09:07;5.9;;;2.0;;
58306;SDS011;44116;50.884;4.768;2023-06-04T08:11:07;4.4;;;1.8;;
58306;SDS011;44116;50.884;4.768;2023-06-04T08:13:07;4.1;;;2.1;;
58306;SDS011;44116;50.884;4.768;2023-06-04T08:15:07;5.1;;;2.0;;
58306;SDS011;44116;50.884;4.768;2023-06-04T08:17:07;4.9;;;2.2;;
58306;SDS011;44116;50.884;4.768;2023-06-04T08:19:07;4.4;;;1.9;;
58306;SDS011;44116;50.884;4.768;2023-06-04T08:21:09;5.8;;;2.0;;
58306;SDS011;44116;50.884;4.768;2023-06-04T08:23:07;7.3;;;2.1;;
58306;SDS011;44116;50.884;4.768;2023-06-04T08:25:07;5.9;;;2.0;;
58306;SDS011;44116;50.884;4.768;2023-06-04T08:27:06;3.9;;;1.7;;
58306;SDS011;44116;50.884;4.768;2023-06-04T08:29:06;4.9;;;2.1;;
58306;SDS011;44116;50.884;4.768;2023-06-04T08:31:06;5.4;;;2.0;;
58306;SDS011;44116;50.884;4.768;2023-06-04T08:35:08;5.6;;;1.9;;
58306;SDS011;44116;50.884;4.768;2023-06-04T08:37:06;3.7;;;2.0;;
58306;SDS011;44116;50.884;4.768;2023-06-04T08:39:06;5.1;;;2.1;;
58306;SDS011;44116;50.884;4.768;2023-06-04T08:41:12;5.7;;;1.9;;
58306;SDS011;44116;50.884;4.768;2023-06-04T08:43:05;5.2;;;2.3;;
58306;SDS011;44116;50.884;4.768;2023-06-04T08:45:10;4.7;;;2.1;;
58306;SDS011;44116;50.884;4.768;2023-06-04T08:51:06;6.3;;;2.0;;
58306;SDS011;44116;50.884;4.768;2023-06-04T08:53:05;4.2;;;1.8;;
58306;SDS011;44116;50.884;4.768;2023-06-04T08:55:06;7.6;;;2.1;;
58306;SDS011;44116;50.884;4.768;2023-06-04T08:57:05;5.1;;;2.3;;
58306;SDS011;44116;50.884;4.768;2023-06-04T08:59:06;5.3;;;2.0;;
58306;SDS011;44116;50.884;4.768;2023-06-04T09:03:05;6.3;;;2.1;;
58306;SDS011;44116;50.884;4.768;2023-06-04T09:05:06;7.3;;;2.0;;
58306;SDS011;44116;50.884;4.768;2023-06-04T09:07:06;5.6;;;1.9;;
58306;SDS011;44116;50.884;4.768;2023-06-04T09:09:09;4.1;;;2.2;;
58306;SDS011;44116;50.884;4.768;2023-06-04T09:11:05;7.8;;;2.7;;
58306;SDS011;44116;50.884;4.768;2023-06-04T09:13:06;4.1;;;2.0;;
58306;SDS011;44116;50.884;4.768;2023-06-04T09:15:05;5.9;;;2.1;;
58306;SDS011;44116;50.884;4.768;2023-06-04T09:17:04;7.5;;;2.4;;
58306;SDS011;44116;50.884;4.768;2023-06-04T09:19:04;5.2;;;2.3;;
58306;SDS011;44116;50.884;4.768;2023-06-04T09:23:12;7.8;;;2.4;;
58306;SDS011;44116;50.884;4.768;2023-06-04T09:25:07;7.4;;;2.2;;
58306;SDS011;44116;50.884;4.768;2023-06-04T09:27:09;4.1;;;2.0;;
58306;SDS011;44116;50.884;4.768;2023-06-04T09:29:04;6.1;;;2.2;;
58306;SDS011;44116;50.884;4.768;2023-06-04T09:31:04;5.6;;;2.5;;
58306;SDS011;44116;50.884;4.768;2023-06-04T09:33:07;5.5;;;2.2;;
58306;SDS011;44116;50.884;4.768;2023-06-04T09:35:12;6.2;;;2.3;;
58306;SDS011;44116;50.884;4.768;2023-06-04T09:37:13;4.3;;;1.9;;
58306;SDS011;44116;50.884;4.768;2023-06-04T09:39:04;5.0;;;2.0;;
58306;SDS011;44116;50.884;4.768;2023-06-04T09:41:04;4.1;;;1.9;;
58306;SDS011;44116;50.884;4.768;2023-06-04T09:43:04;4.8;;;2.1;;
58306;SDS011;44116;50.884;4.768;2023-06-04T09:45:04;4.5;;;1.7;;
58306;SDS011;44116;50.884;4.768;2023-06-04T09:47:03;5.5;;;2.2;;
58306;SDS011;44116;50.884;4.768;2023-06-04T09:49:05;3.9;;;1.9;;
58306;SDS011;44116;50.884;4.768;2023-06-04T09:51:08;6.6;;;2.0;;
58306;SDS011;44116;50.884;4.768;2023-06-04T09:53:12;7.8;;;1.8;;
58306;SDS011;44116;50.884;4.768;2023-06-04T09:55:03;7.8;;;1.7;;
58306;SDS011;44116;50.884;4.768;2023-06-04T09:57:03;7.6;;;2.1;;
58306;SDS011;44116;50.884;4.768;2023-06-04T09:59:03;5.9;;;2.2;;
58306;SDS011;44116;50.884;4.768;2023-06-04T10:03:03;3.7;;;1.8;;
58306;SDS011;44116;50.884;4.768;2023-06-04T10:05:04;4.9;;;1.9;;
58306;SDS011;44116;50.884;4.768;2023-06-04T10:07:04;7.1;;;2.0;;
58306;SDS011;44116;50.884;4.768;2023-06-04T10:09:05;4.3;;;1.8;;
58306;SDS011;44116;50.884;4.768;2023-06-04T10:11:03;4.9;;;2.0;;
58306;SDS011;44116;50.884;4.768;2023-06-04T10:13:05;3.3;;;1.5;;
58306;SDS011;44116;50.884;4.768;2023-06-04T10:15:10;3.9;;;1.7;;
58306;SDS011;44116;50.884;4.768;2023-06-04T10:17:04;4.5;;;1.8;;
58306;SDS011;44116;50.884;4.768;2023-06-04T10:21:03;3.8;;;1.5;;
58306;SDS011;44116;50.884;4.768;2023-06-04T10:23:03;4.5;;;1.6;;
58306;SDS011;44116;50.884;4.768;2023-06-04T10:27:03;5.0;;;2.0;;
58306;SDS011;44116;50.884;4.768;2023-06-04T10:29:03;4.1;;;1.9;;
58306;SDS011;44116;50.884;4.768;2023-06-04T10:31:02;3.7;;;1.6;;
58306;SDS011;44116;50.884;4.768;2023-06-04T10:33:03;5.4;;;1.8;;
58306;SDS011;44116;50.884;4.768;2023-06-04T10:35:04;7.0;;;1.6;;
58306;SDS011;44116;50.884;4.768;2023-06-04T10:37:03;6.3;;;1.8;;
58306;SDS011;44116;50.884;4.768;2023-06-04T10:41:12;5.5;;;1.5;;
58306;SDS011;44116;50.884;4.768;2023-06-04T10:43:06;5.8;;;1.7;;
58306;SDS011;44116;50.884;4.768;2023-06-04T10:53:02;5.3;;;1.8;;
58306;SDS011;44116;50.884;4.768;2023-06-04T10:55:04;5.2;;;2.0;;
58306;SDS011;44116;50.884;4.768;2023-06-04T10:57:09;5.1;;;1.7;;
58306;SDS011;44116;50.884;4.768;2023-06-04T11:03:04;7.0;;;1.9;;
58306;SDS011;44116;50.884;4.768;2023-06-04T11:05:04;4.3;;;1.7;;
58306;SDS011;44116;50.884;4.768;2023-06-04T11:07:03;5.1;;;2.0;;
58306;SDS011;44116;50.884;4.768;2023-06-04T11:09:04;4.6;;;1.6;;
58306;SDS011;44116;50.884;4.768;2023-06-04T11:11:10;5.4;;;1.7;;
58306;SDS011;44116;50.884;4.768;2023-06-04T11:13:03;4.9;;;1.8;;
58306;SDS011;44116;50.884;4.768;2023-06-04T11:15:02;6.5;;;1.9;;
58306;SDS011;44116;50.884;4.768;2023-06-04T11:19:02;4.8;;;2.1;;
58306;SDS011;44116;50.884;4.768;2023-06-04T11:23:02;4.9;;;1.7;;
58306;SDS011;44116;50.884;4.768;2023-06-04T11:29:06;6.2;;;1.9;;
58306;SDS011;44116;50.884;4.768;2023-06-04T11:31:03;3.7;;;1.7;;
58306;SDS011;44116;50.884;4.768;2023-06-04T11:33:03;4.5;;;1.8;;
58306;SDS011;44116;50.884;4.768;2023-06-04T11:39:03;3.2;;;1.7;;
58306;SDS011;44116;50.884;4.768;2023-06-04T11:41:02;5.6;;;1.8;;
58306;SDS011;44116;50.884;4.768;2023-06-04T11:45:02;6.1;;;2.0;;
58306;SDS011;44116;50.884;4.768;2023-06-04T11:49:02;4.2;;;1.8;;
58306;SDS011;44116;50.884;4.768;2023-06-04T11:51:06;5.7;;;1.9;;
58306;SDS011;44116;50.884;4.768;2023-06-04T11:53:02;3.8;;;1.8;;
58306;SDS011;44116;50.884;4.768;2023-06-04T11:55:02;3.2;;;1.5;;
58306;SDS011;44116;50.884;4.768;2023-06-04T11:57:02;2.8;;;1.6;;
58306;SDS011;44116;50.884;4.768;2023-06-04T12:03:02;4.8;;;2.0;;
58306;SDS011;44116;50.884;4.768;2023-06-04T12:07:03;7.8;;;1.9;;
58306;SDS011;44116;50.884;4.768;2023-06-04T12:09:02;5.9;;;1.7;;
58306;SDS011;44116;50.884;4.768;2023-06-04T12:15:02;4.2;;;1.6;;
58306;SDS011;44116;50.884;4.768;2023-06-04T12:17:05;5.7;;;1.7;;
58306;SDS011;44116;50.884;4.768;2023-06-04T12:19:05;5.1;;;1.9;;
58306;SDS011;44116;50.884;4.768;2023-06-04T12:21:02;3.1;;;1.7;;
58306;SDS011;44116;50.884;4.768;2023-06-04T12:23:02;4.1;;;1.9;;
58306;SDS011;44116;50.884;4.768;2023-06-04T12:25:02;4.1;;;1.7;;
58306;SDS011;44116;50.884;4.768;2023-06-04T12:29:02;5.8;;;1.9;;
58306;SDS011;44116;50.884;4.768;2023-06-04T12:31:02;4.4;;;2.0;;
58306;SDS011;44116;50.884;4.768;2023-06-04T12:33:02;5.0;;;1.9;;
58306;SDS011;44116;50.884;4.768;2023-06-04T12:37:02;4.4;;;1.8;;
58306;SDS011;44116;50.884;4.768;2023-06-04T12:39:03;4.6;;;1.9;;
58306;SDS011;44116;50.884;4.768;2023-06-04T12:41:02;4.6;;;1.7;;
58306;SDS011;44116;50.884;4.768;2023-06-04T12:43:02;5.0;;;1.8;;
58306;SDS011;44116;50.884;4.768;2023-06-04T12:45:02;4.7;;;1.9;;
58306;SDS011;44116;50.884;4.768;2023-06-04T12:49:02;5.7;;;1.8;;
58306;SDS011;44116;50.884;4.768;2023-06-04T12:51:02;4.3;;;1.9;;
58306;SDS011;44116;50.884;4.768;2023-06-04T12:53:02;4.2;;;1.8;;
58306;SDS011;44116;50.884;4.768;2023-06-04T13:01:02;5.4;;;2.0;;
58306;SDS011;44116;50.884;4.768;2023-06-04T13:05:02;4.8;;;1.7;;
58306;SDS011;44116;50.884;4.768;2023-06-04T13:09:02;4.4;;;1.8;;
58306;SDS011;44116;50.884;4.768;2023-06-04T13:11:02;5.0;;;1.7;;
58306;SDS011;44116;50.884;4.768;2023-06-04T13:13:02;3.5;;;1.6;;
58306;SDS011;44116;50.884;4.768;2023-06-04T13:15:02;3.1;;;1.8;;
58306;SDS011;44116;50.884;4.768;2023-06-04T13:17:02;5.8;;;1.7;;
58306;SDS011;44116;50.884;4.768;2023-06-04T13:19:02;3.4;;;1.5;;
58306;SDS011;44116;50.884;4.768;2023-06-04T13:21:02;7.4;;;1.8;;
58306;SDS011;44116;50.884;4.768;2023-06-04T13:23:02;4.4;;;1.9;;
58306;SDS011;44116;50.884;4.768;2023-06-04T13:25:02;4.9;;;1.7;;
58306;SDS011;44116;50.884;4.768;2023-06-04T13:27:02;6.2;;;1.9;;
58306;SDS011;44116;50.884;4.768;2023-06-04T13:29:02;5.0;;;2.0;;
58306;SDS011;44116;50.884;4.768;2023-06-04T13:31:02;5.8;;;1.6;;
58306;SDS011;44116;50.884;4.768;2023-06-04T13:33:02;4.2;;;1.8;;
58306;SDS011;44116;50.884;4.768;2023-06-04T13:35:02;3.2;;;1.6;;
58306;SDS011;44116;50.884;4.768;2023-06-04T13:37:02;6.6;;;1.8;;
58306;SDS011;44116;50.884;4.768;2023-06-04T13:41:02;4.1;;;1.7;;
58306;SDS011;44116;50.884;4.768;2023-06-04T13:43:02;5.3;;;1.9;;
58306;SDS011;44116;50.884;4.768;2023-06-04T13:45:03;4.6;;;1.7;;
58306;SDS011;44116;50.884;4.768;2023-06-04T13:51:02;4.9;;;1.4;;
58306;SDS011;44116;50.884;4.768;2023-06-04T13:53:02;4.2;;;1.7;;
58306;SDS011;44116;50.884;4.768;2023-06-04T13:55:03;3.2;;;1.8;;
58306;SDS011;44116;50.884;4.768;2023-06-04T13:57:03;3.6;;;1.5;;
58306;SDS011;44116;50.884;4.768;2023-06-04T13:59:02;4.4;;;1.6;;
58306;SDS011;44116;50.884;4.768;2023-06-04T14:03:03;3.7;;;1.7;;
58306;SDS011;44116;50.884;4.768;2023-06-04T14:09:03;3.8;;;1.8;;
58306;SDS011;44116;50.884;4.768;2023-06-04T14:13:02;5.8;;;1.7;;
58306;SDS011;44116;50.884;4.768;2023-06-04T14:17:02;7.0;;;1.9;;
58306;SDS011;44116;50.884;4.768;2023-06-04T14:19:02;2.5;;;1.6;;
58306;SDS011;44116;50.884;4.768;2023-06-04T14:21:02;3.2;;;1.5;;
58306;SDS011;44116;50.884;4.768;2023-06-04T14:23:02;5.1;;;1.6;;
58306;SDS011;44116;50.884;4.768;2023-06-04T14:25:03;2.7;;;1.5;;
58306;SDS011;44116;50.884;4.768;2023-06-04T14:27:03;4.3;;;1.8;;
58306;SDS011;44116;50.884;4.768;2023-06-04T14:29:03;5.8;;;1.7;;
58306;SDS011;44116;50.884;4.768;2023-06-04T14:31:02;3.2;;;1.5;;
58306;SDS011;44116;50.884;4.768;2023-06-04T14:33:03;2.4;;;1.6;;
58306;SDS011;44116;50.884;4.768;2023-06-04T14:35:03;4.4;;;1.7;;
58306;SDS011;44116;50.884;4.768;2023-06-04T14:37:03;4.0;;;1.6;;
58306;SDS011;44116;50.884;4.768;2023-06-04T14:39:03;5.0;;;1.7;;
58306;SDS011;44116;50.884;4.768;2023-06-04T14:41:03;3.3;;;1.5;;
58306;SDS011;44116;50.884;4.768;2023-06-04T14:43:03;4.5;;;1.7;;
58306;SDS011;44116;50.884;4.768;2023-06-04T14:45:04;5.9;;;1.5;;
58306;SDS011;44116;50.884;4.768;2023-06-04T14:47:03;5.7;;;1.8;;
58306;SDS011;44116;50.884;4.768;2023-06-04T14:51:03;5.3;;;1.7;;
58306;SDS011;44116;50.884;4.768;2023-06-04T14:53:03;3.8;;;1.5;;
58306;SDS011;44116;50.884;4.768;2023-06-04T14:57:03;4.1;;;1.7;;
58306;SDS011;44116;50.884;4.768;2023-06-04T14:59:03;5.3;;;1.6;;
58306;SDS011;44116;50.884;4.768;2023-06-04T15:05:03;4.2;;;1.8;;
58306;SDS011;44116;50.884;4.768;2023-06-04T15:07:03;3.8;;;1.5;;
58306;SDS011;44116;50.884;4.768;2023-06-04T15:11:03;4.0;;;1.6;;
58306;SDS011;44116;50.884;4.768;2023-06-04T15:13:03;3.8;;;1.7;;
58306;SDS011;44116;50.884;4.768;2023-06-04T15:15:05;3.6;;;1.4;;
58306;SDS011;44116;50.884;4.768;2023-06-04T15:17:03;3.4;;;1.6;;
58306;SDS011;44116;50.884;4.768;2023-06-04T15:21:04;4.8;;;1.4;;
58306;SDS011;44116;50.884;4.768;2023-06-04T15:25:04;3.9;;;1.6;;
58306;SDS011;44116;50.884;4.768;2023-06-04T15:29:04;2.5;;;1.4;;
58306;SDS011;44116;50.884;4.768;2023-06-04T15:31:04;3.9;;;1.6;;
58306;SDS011;44116;50.884;4.768;2023-06-04T15:33:04;4.7;;;1.7;;
58306;SDS011;44116;50.884;4.768;2023-06-04T15:35:04;3.6;;;1.5;;
58306;SDS011;44116;50.884;4.768;2023-06-04T15:41:04;3.3;;;1.4;;